sensor_id;sensor_type;location;lat;lon;timestamp;P1;durP1;ratioP1;P2;durP2;ratioP2
41755;SDS011;27435;48.480;9.258;2023-06-10T00:01:00;5.65;;;4.13;;
41755;SDS011;27435;48.480;9.258;2023-06-10T00:03:26;9.73;;;4.40;;
41755;SDS011;27435;48.480;9.258;2023-06-10T00:05:52;7.95;;;4.95;;
41755;SDS011;27435;48.480;9.258;2023-06-10T00:08:18;7.15;;;4.68;;
41755;SDS011;27435;48.480;9.258;2023-06-10T00:10:44;6.22;;;4.15;;
41755;SDS011;27435;48.480;9.258;2023-06-10T00:13:10;7.00;;;4.70;;
41755;SDS011;27435;48.480;9.258;2023-06-10T00:15:37;6.38;;;4.57;;
41755;SDS011;27435;48.480;9.258;2023-06-10T00:18:03;8.45;;;5.45;;
41755;SDS011;27435;48.480;9.258;2023-06-10T00:20:29;5.45;;;4.45;;
41755;SDS011;27435;48.480;9.258;2023-06-10T00:22:55;8.15;;;4.68;;
41755;SDS011;27435;48.480;9.258;2023-06-10T00:25:23;8.63;;;4.30;;
41755;SDS011;27435;48.480;9.258;2023-06-10T00:27:50;9.85;;;4.88;;
41755;SDS011;27435;48.480;9.258;2023-06-10T00:30:16;8.18;;;4.53;;
41755;SDS011;27435;48.480;9.258;2023-06-10T00:32:42;10.60;;;4.88;;
41755;SDS011;27435;48.480;9.258;2023-06-10T00:35:08;8.70;;;4.70;;
41755;SDS011;27435;48.480;9.258;2023-06-10T00:37:33;7.50;;;4.82;;
41755;SDS011;27435;48.480;9.258;2023-06-10T00:40:03;7.05;;;4.93;;
41755;SDS011;27435;48.480;9.258;2023-06-10T00:42:29;7.93;;;4.63;;
41755;SDS011;27435;48.480;9.258;2023-06-10T00:44:55;7.93;;;5.15;;
41755;SDS011;27435;48.480;9.258;2023-06-10T00:47:21;7.90;;;4.90;;
41755;SDS011;27435;48.480;9.258;2023-06-10T00:49:47;7.88;;;4.95;;
41755;SDS011;27435;48.480;9.258;2023-06-10T00:52:14;7.35;;;5.40;;
41755;SDS011;27435;48.480;9.258;2023-06-10T00:54:41;6.93;;;5.32;;
41755;SDS011;27435;48.480;9.258;2023-06-10T00:57:07;7.13;;;4.78;;
41755;SDS011;27435;48.480;9.258;2023-06-10T00:59:33;10.30;;;5.40;;
41755;SDS011;27435;48.480;9.258;2023-06-10T01:01:59;9.55;;;4.97;;
41755;SDS011;27435;48.480;9.258;2023-06-10T01:04:25;7.38;;;5.28;;
41755;SDS011;27435;48.480;9.258;2023-06-10T01:09:45;7.80;;;5.60;;
41755;SDS011;27435;48.480;9.258;2023-06-10T01:12:31;6.65;;;5.10;;
41755;SDS011;27435;48.480;9.258;2023-06-10T01:15:04;8.25;;;5.25;;
41755;SDS011;27435;48.480;9.258;2023-06-10T01:17:31;8.63;;;5.35;;
41755;SDS011;27435;48.480;9.258;2023-06-10T01:19:56;8.60;;;4.40;;
41755;SDS011;27435;48.480;9.258;2023-06-10T01:22:26;8.32;;;5.15;;
41755;SDS011;27435;48.480;9.258;2023-06-10T01:24:53;7.60;;;5.18;;
41755;SDS011;27435;48.480;9.258;2023-06-10T01:27:23;7.07;;;5.00;;
41755;SDS011;27435;48.480;9.258;2023-06-10T01:30:14;9.23;;;5.97;;
41755;SDS011;27435;48.480;9.258;2023-06-10T01:32:44;8.38;;;5.38;;
41755;SDS011;27435;48.480;9.258;2023-06-10T01:35:12;8.82;;;5.93;;
41755;SDS011;27435;48.480;9.258;2023-06-10T01:37:39;8.23;;;5.47;;
41755;SDS011;27435;48.480;9.258;2023-06-10T01:40:07;7.88;;;5.53;;
41755;SDS011;27435;48.480;9.258;2023-06-10T01:42:35;11.18;;;6.30;;
41755;SDS011;27435;48.480;9.258;2023-06-10T01:45:01;11.55;;;6.90;;
41755;SDS011;27435;48.480;9.258;2023-06-10T01:47:27;8.15;;;6.18;;
41755;SDS011;27435;48.480;9.258;2023-06-10T01:49:53;12.35;;;6.97;;
41755;SDS011;27435;48.480;9.258;2023-06-10T01:52:18;10.50;;;6.45;;
41755;SDS011;27435;48.480;9.258;2023-06-10T01:54:44;9.95;;;6.43;;
41755;SDS011;27435;48.480;9.258;2023-06-10T01:57:10;9.73;;;6.53;;
41755;SDS011;27435;48.480;9.258;2023-06-10T01:59:35;10.68;;;6.13;;
41755;SDS011;27435;48.480;9.258;2023-06-10T02:02:02;9.07;;;6.57;;
41755;SDS011;27435;48.480;9.258;2023-06-10T02:04:29;10.07;;;6.20;;
41755;SDS011;27435;48.480;9.258;2023-06-10T02:06:54;10.93;;;6.60;;
41755;SDS011;27435;48.480;9.258;2023-06-10T02:09:20;12.60;;;7.15;;
41755;SDS011;27435;48.480;9.258;2023-06-10T02:11:47;11.77;;;6.97;;
41755;SDS011;27435;48.480;9.258;2023-06-10T02:14:13;11.38;;;6.97;;
41755;SDS011;27435;48.480;9.258;2023-06-10T02:16:39;10.32;;;6.80;;
41755;SDS011;27435;48.480;9.258;2023-06-10T02:19:05;8.95;;;6.90;;
41755;SDS011;27435;48.480;9.258;2023-06-10T02:21:32;10.63;;;7.43;;
41755;SDS011;27435;48.480;9.258;2023-06-10T02:23:59;11.20;;;6.95;;
41755;SDS011;27435;48.480;9.258;2023-06-10T02:26:25;12.35;;;7.30;;
41755;SDS011;27435;48.480;9.258;2023-06-10T02:28:51;8.68;;;6.60;;
41755;SDS011;27435;48.480;9.258;2023-06-10T02:31:17;9.88;;;6.55;;
41755;SDS011;27435;48.480;9.258;2023-06-10T02:33:43;8.75;;;6.45;;
41755;SDS011;27435;48.480;9.258;2023-06-10T02:36:09;9.43;;;6.53;;
41755;SDS011;27435;48.480;9.258;2023-06-10T02:38:38;8.90;;;6.10;;
41755;SDS011;27435;48.480;9.258;2023-06-10T02:41:05;12.88;;;7.28;;
41755;SDS011;27435;48.480;9.258;2023-06-10T02:43:31;8.57;;;6.22;;
41755;SDS011;27435;48.480;9.258;2023-06-10T02:45:56;10.35;;;6.38;;
41755;SDS011;27435;48.480;9.258;2023-06-10T02:48:25;9.20;;;6.18;;
41755;SDS011;27435;48.480;9.258;2023-06-10T02:50:52;10.32;;;6.70;;
41755;SDS011;27435;48.480;9.258;2023-06-10T02:53:18;8.63;;;6.55;;
41755;SDS011;27435;48.480;9.258;2023-06-10T02:55:44;9.10;;;6.45;;
41755;SDS011;27435;48.480;9.258;2023-06-10T02:58:09;9.32;;;6.35;;
41755;SDS011;27435;48.480;9.258;2023-06-10T03:00:35;8.85;;;6.72;;
41755;SDS011;27435;48.480;9.258;2023-06-10T03:03:02;12.15;;;6.80;;
41755;SDS011;27435;48.480;9.258;2023-06-10T03:05:28;8.73;;;6.28;;
41755;SDS011;27435;48.480;9.258;2023-06-10T03:07:54;8.65;;;6.63;;
41755;SDS011;27435;48.480;9.258;2023-06-10T03:10:20;8.98;;;6.85;;
41755;SDS011;27435;48.480;9.258;2023-06-10T03:12:46;9.73;;;7.45;;
41755;SDS011;27435;48.480;9.258;2023-06-10T03:15:11;11.10;;;7.00;;
41755;SDS011;27435;48.480;9.258;2023-06-10T03:17:38;10.13;;;7.18;;
41755;SDS011;27435;48.480;9.258;2023-06-10T03:20:03;10.23;;;7.40;;
41755;SDS011;27435;48.480;9.258;2023-06-10T03:22:30;9.95;;;7.00;;
41755;SDS011;27435;48.480;9.258;2023-06-10T03:24:56;11.80;;;7.60;;
41755;SDS011;27435;48.480;9.258;2023-06-10T03:27:22;8.52;;;6.72;;
41755;SDS011;27435;48.480;9.258;2023-06-10T03:29:48;15.63;;;7.75;;
41755;SDS011;27435;48.480;9.258;2023-06-10T03:32:13;8.88;;;6.57;;
41755;SDS011;27435;48.480;9.258;2023-06-10T03:34:40;12.38;;;6.78;;
41755;SDS011;27435;48.480;9.258;2023-06-10T03:37:05;11.80;;;7.05;;
41755;SDS011;27435;48.480;9.258;2023-06-10T03:39:31;11.70;;;6.65;;
41755;SDS011;27435;48.480;9.258;2023-06-10T03:41:57;9.27;;;7.10;;
41755;SDS011;27435;48.480;9.258;2023-06-10T03:44:24;8.65;;;6.38;;
41755;SDS011;27435;48.480;9.258;2023-06-10T03:46:51;9.07;;;6.85;;
41755;SDS011;27435;48.480;9.258;2023-06-10T03:49:17;10.32;;;7.10;;
41755;SDS011;27435;48.480;9.258;2023-06-10T03:51:42;8.32;;;6.57;;
41755;SDS011;27435;48.480;9.258;2023-06-10T03:54:08;8.48;;;6.32;;
41755;SDS011;27435;48.480;9.258;2023-06-10T03:56:34;10.63;;;6.47;;
41755;SDS011;27435;48.480;9.258;2023-06-10T03:59:00;10.07;;;7.03;;
41755;SDS011;27435;48.480;9.258;2023-06-10T04:01:26;8.93;;;6.53;;
41755;SDS011;27435;48.480;9.258;2023-06-10T04:03:52;9.88;;;7.03;;
41755;SDS011;27435;48.480;9.258;2023-06-10T04:06:19;8.65;;;6.53;;
41755;SDS011;27435;48.480;9.258;2023-06-10T04:08:46;8.73;;;6.43;;
41755;SDS011;27435;48.480;9.258;2023-06-10T04:11:12;6.85;;;5.75;;
41755;SDS011;27435;48.480;9.258;2023-06-10T04:13:38;9.57;;;6.45;;
41755;SDS011;27435;48.480;9.258;2023-06-10T04:16:03;8.85;;;6.65;;
41755;SDS011;27435;48.480;9.258;2023-06-10T04:18:29;7.20;;;5.83;;
41755;SDS011;27435;48.480;9.258;2023-06-10T04:20:55;9.68;;;7.10;;
41755;SDS011;27435;48.480;9.258;2023-06-10T04:23:22;9.07;;;6.95;;
41755;SDS011;27435;48.480;9.258;2023-06-10T04:25:47;11.35;;;6.75;;
41755;SDS011;27435;48.480;9.258;2023-06-10T04:28:13;12.10;;;6.88;;
41755;SDS011;27435;48.480;9.258;2023-06-10T04:30:39;9.32;;;7.07;;
41755;SDS011;27435;48.480;9.258;2023-06-10T04:33:04;10.70;;;7.25;;
41755;SDS011;27435;48.480;9.258;2023-06-10T04:35:31;9.05;;;7.07;;
41755;SDS011;27435;48.480;9.258;2023-06-10T04:37:57;11.25;;;7.07;;
41755;SDS011;27435;48.480;9.258;2023-06-10T04:40:23;8.75;;;6.63;;
41755;SDS011;27435;48.480;9.258;2023-06-10T04:42:49;9.57;;;7.15;;
41755;SDS011;27435;48.480;9.258;2023-06-10T04:45:14;10.52;;;7.20;;
41755;SDS011;27435;48.480;9.258;2023-06-10T04:47:40;9.18;;;7.10;;
41755;SDS011;27435;48.480;9.258;2023-06-10T04:50:06;9.52;;;6.80;;
41755;SDS011;27435;48.480;9.258;2023-06-10T04:52:32;11.52;;;7.38;;
41755;SDS011;27435;48.480;9.258;2023-06-10T04:54:58;10.13;;;7.18;;
41755;SDS011;27435;48.480;9.258;2023-06-10T04:57:24;9.32;;;6.63;;
41755;SDS011;27435;48.480;9.258;2023-06-10T04:59:51;11.70;;;7.18;;
41755;SDS011;27435;48.480;9.258;2023-06-10T05:02:17;9.93;;;7.10;;
41755;SDS011;27435;48.480;9.258;2023-06-10T05:04:42;9.93;;;7.15;;
41755;SDS011;27435;48.480;9.258;2023-06-10T05:07:08;10.45;;;6.47;;
41755;SDS011;27435;48.480;9.258;2023-06-10T05:09:34;8.57;;;6.68;;
41755;SDS011;27435;48.480;9.258;2023-06-10T05:12:01;9.75;;;6.78;;
41755;SDS011;27435;48.480;9.258;2023-06-10T05:14:27;9.32;;;6.35;;
41755;SDS011;27435;48.480;9.258;2023-06-10T05:16:53;10.60;;;6.65;;
41755;SDS011;27435;48.480;9.258;2023-06-10T05:19:19;10.35;;;6.65;;
41755;SDS011;27435;48.480;9.258;2023-06-10T05:21:44;8.05;;;6.03;;
41755;SDS011;27435;48.480;9.258;2023-06-10T05:24:10;8.68;;;6.22;;
41755;SDS011;27435;48.480;9.258;2023-06-10T05:26:36;8.52;;;6.15;;
41755;SDS011;27435;48.480;9.258;2023-06-10T05:29:03;7.60;;;5.07;;
41755;SDS011;27435;48.480;9.258;2023-06-10T05:31:29;7.72;;;5.03;;
41755;SDS011;27435;48.480;9.258;2023-06-10T05:33:55;7.15;;;4.40;;
41755;SDS011;27435;48.480;9.258;2023-06-10T05:36:20;8.07;;;4.85;;
41755;SDS011;27435;48.480;9.258;2023-06-10T05:38:46;6.47;;;5.03;;
41755;SDS011;27435;48.480;9.258;2023-06-10T05:41:12;6.10;;;4.68;;
41755;SDS011;27435;48.480;9.258;2023-06-10T05:43:38;7.97;;;4.30;;
41755;SDS011;27435;48.480;9.258;2023-06-10T05:46:03;6.18;;;4.43;;
41755;SDS011;27435;48.480;9.258;2023-06-10T05:48:29;7.38;;;4.47;;
41755;SDS011;27435;48.480;9.258;2023-06-10T05:50:55;9.85;;;4.75;;
41755;SDS011;27435;48.480;9.258;2023-06-10T05:53:20;6.18;;;4.30;;
41755;SDS011;27435;48.480;9.258;2023-06-10T05:55:46;5.75;;;4.32;;
41755;SDS011;27435;48.480;9.258;2023-06-10T05:58:12;10.40;;;4.97;;
41755;SDS011;27435;48.480;9.258;2023-06-10T06:00:38;7.03;;;4.78;;
41755;SDS011;27435;48.480;9.258;2023-06-10T06:03:08;7.28;;;5.10;;
41755;SDS011;27435;48.480;9.258;2023-06-10T06:05:35;5.80;;;4.63;;
41755;SDS011;27435;48.480;9.258;2023-06-10T06:08:02;9.10;;;4.90;;
41755;SDS011;27435;48.480;9.258;2023-06-10T06:10:32;7.50;;;4.65;;
41755;SDS011;27435;48.480;9.258;2023-06-10T06:13:01;6.90;;;4.90;;
41755;SDS011;27435;48.480;9.258;2023-06-10T06:15:27;6.50;;;4.20;;
41755;SDS011;27435;48.480;9.258;2023-06-10T06:17:53;5.97;;;4.45;;
41755;SDS011;27435;48.480;9.258;2023-06-10T06:20:19;7.13;;;4.00;;
41755;SDS011;27435;48.480;9.258;2023-06-10T06:22:45;6.80;;;4.75;;
41755;SDS011;27435;48.480;9.258;2023-06-10T06:25:11;6.00;;;4.30;;
41755;SDS011;27435;48.480;9.258;2023-06-10T06:27:37;6.30;;;4.45;;
41755;SDS011;27435;48.480;9.258;2023-06-10T06:30:02;7.22;;;4.50;;
41755;SDS011;27435;48.480;9.258;2023-06-10T06:32:28;6.65;;;4.40;;
41755;SDS011;27435;48.480;9.258;2023-06-10T06:34:54;6.47;;;4.53;;
41755;SDS011;27435;48.480;9.258;2023-06-10T06:37:21;5.78;;;4.15;;
41755;SDS011;27435;48.480;9.258;2023-06-10T06:39:49;5.72;;;4.35;;
41755;SDS011;27435;48.480;9.258;2023-06-10T06:42:18;6.47;;;4.35;;
41755;SDS011;27435;48.480;9.258;2023-06-10T06:44:44;5.47;;;3.88;;
41755;SDS011;27435;48.480;9.258;2023-06-10T06:47:11;7.25;;;4.43;;
41755;SDS011;27435;48.480;9.258;2023-06-10T06:49:37;7.00;;;4.35;;
41755;SDS011;27435;48.480;9.258;2023-06-10T06:52:03;6.28;;;4.70;;
41755;SDS011;27435;48.480;9.258;2023-06-10T06:54:28;6.82;;;4.47;;
41755;SDS011;27435;48.480;9.258;2023-06-10T06:56:54;8.30;;;4.53;;
41755;SDS011;27435;48.480;9.258;2023-06-10T06:59:20;7.63;;;4.47;;
41755;SDS011;27435;48.480;9.258;2023-06-10T07:01:46;5.53;;;4.15;;
41755;SDS011;27435;48.480;9.258;2023-06-10T07:04:12;7.65;;;4.30;;
41755;SDS011;27435;48.480;9.258;2023-06-10T07:06:39;6.43;;;4.20;;
41755;SDS011;27435;48.480;9.258;2023-06-10T07:09:04;5.10;;;4.30;;
41755;SDS011;27435;48.480;9.258;2023-06-10T07:11:31;8.90;;;5.15;;
41755;SDS011;27435;48.480;9.258;2023-06-10T07:13:57;5.40;;;4.20;;
41755;SDS011;27435;48.480;9.258;2023-06-10T07:16:22;6.15;;;4.55;;
41755;SDS011;27435;48.480;9.258;2023-06-10T07:18:48;9.05;;;5.22;;
41755;SDS011;27435;48.480;9.258;2023-06-10T07:21:13;6.20;;;4.70;;
41755;SDS011;27435;48.480;9.258;2023-06-10T07:23:42;8.90;;;4.97;;
41755;SDS011;27435;48.480;9.258;2023-06-10T07:26:09;8.30;;;5.40;;
41755;SDS011;27435;48.480;9.258;2023-06-10T07:28:39;10.38;;;5.30;;
41755;SDS011;27435;48.480;9.258;2023-06-10T07:31:05;7.97;;;5.30;;
41755;SDS011;27435;48.480;9.258;2023-06-10T07:33:31;6.70;;;5.47;;
41755;SDS011;27435;48.480;9.258;2023-06-10T07:35:57;6.95;;;4.68;;
41755;SDS011;27435;48.480;9.258;2023-06-10T07:38:24;7.50;;;5.30;;
41755;SDS011;27435;48.480;9.258;2023-06-10T07:40:50;6.72;;;4.80;;
41755;SDS011;27435;48.480;9.258;2023-06-10T07:43:16;8.18;;;4.90;;
41755;SDS011;27435;48.480;9.258;2023-06-10T07:45:42;7.05;;;5.55;;
41755;SDS011;27435;48.480;9.258;2023-06-10T07:48:08;7.20;;;4.88;;
41755;SDS011;27435;48.480;9.258;2023-06-10T07:50:34;7.00;;;5.22;;
41755;SDS011;27435;48.480;9.258;2023-06-10T07:53:00;8.95;;;4.97;;
41755;SDS011;27435;48.480;9.258;2023-06-10T07:55:26;7.65;;;5.53;;
41755;SDS011;27435;48.480;9.258;2023-06-10T07:57:52;8.68;;;5.50;;
41755;SDS011;27435;48.480;9.258;2023-06-10T08:00:19;7.40;;;5.30;;
41755;SDS011;27435;48.480;9.258;2023-06-10T08:02:45;8.10;;;4.93;;
41755;SDS011;27435;48.480;9.258;2023-06-10T08:05:11;8.73;;;5.30;;
41755;SDS011;27435;48.480;9.258;2023-06-10T08:07:37;7.32;;;5.50;;
41755;SDS011;27435;48.480;9.258;2023-06-10T08:10:05;7.03;;;5.35;;
41755;SDS011;27435;48.480;9.258;2023-06-10T08:12:32;9.85;;;5.90;;
41755;SDS011;27435;48.480;9.258;2023-06-10T08:14:58;6.32;;;5.10;;
41755;SDS011;27435;48.480;9.258;2023-06-10T08:17:24;9.75;;;5.30;;
41755;SDS011;27435;48.480;9.258;2023-06-10T08:19:50;6.75;;;5.10;;
41755;SDS011;27435;48.480;9.258;2023-06-10T08:22:16;7.43;;;4.93;;
41755;SDS011;27435;48.480;9.258;2023-06-10T08:24:41;6.60;;;4.53;;
41755;SDS011;27435;48.480;9.258;2023-06-10T08:27:07;6.65;;;5.15;;
41755;SDS011;27435;48.480;9.258;2023-06-10T08:29:33;7.32;;;5.15;;
41755;SDS011;27435;48.480;9.258;2023-06-10T08:31:58;6.68;;;4.80;;
41755;SDS011;27435;48.480;9.258;2023-06-10T08:34:25;6.40;;;4.65;;
41755;SDS011;27435;48.480;9.258;2023-06-10T08:36:50;6.00;;;4.63;;
41755;SDS011;27435;48.480;9.258;2023-06-10T08:39:18;8.00;;;4.80;;
41755;SDS011;27435;48.480;9.258;2023-06-10T08:41:47;6.68;;;4.68;;
41755;SDS011;27435;48.480;9.258;2023-06-10T08:44:32;7.43;;;4.70;;
41755;SDS011;27435;48.480;9.258;2023-06-10T08:47:03;6.28;;;4.20;;
41755;SDS011;27435;48.480;9.258;2023-06-10T08:49:37;7.68;;;4.47;;
41755;SDS011;27435;48.480;9.258;2023-06-10T08:52:06;6.47;;;4.55;;
41755;SDS011;27435;48.480;9.258;2023-06-10T08:54:33;8.00;;;5.15;;
41755;SDS011;27435;48.480;9.258;2023-06-10T08:57:03;5.22;;;3.90;;
41755;SDS011;27435;48.480;9.258;2023-06-10T08:59:31;6.28;;;4.10;;
41755;SDS011;27435;48.480;9.258;2023-06-10T09:01:57;5.05;;;3.47;;
41755;SDS011;27435;48.480;9.258;2023-06-10T09:04:23;6.53;;;3.70;;
41755;SDS011;27435;48.480;9.258;2023-06-10T09:06:49;7.40;;;3.60;;
41755;SDS011;27435;48.480;9.258;2023-06-10T09:09:17;7.07;;;3.95;;
41755;SDS011;27435;48.480;9.258;2023-06-10T09:11:45;5.47;;;2.97;;
41755;SDS011;27435;48.480;9.258;2023-06-10T09:14:11;4.97;;;3.15;;
41755;SDS011;27435;48.480;9.258;2023-06-10T09:16:38;4.45;;;2.58;;
41755;SDS011;27435;48.480;9.258;2023-06-10T09:19:04;5.53;;;3.40;;
41755;SDS011;27435;48.480;9.258;2023-06-10T09:21:33;4.32;;;2.90;;
41755;SDS011;27435;48.480;9.258;2023-06-10T09:23:59;5.18;;;3.05;;
41755;SDS011;27435;48.480;9.258;2023-06-10T09:26:28;4.40;;;3.10;;
41755;SDS011;27435;48.480;9.258;2023-06-10T09:29:06;3.30;;;2.40;;
41755;SDS011;27435;48.480;9.258;2023-06-10T09:31:36;4.03;;;3.05;;
41755;SDS011;27435;48.480;9.258;2023-06-10T09:34:07;3.88;;;2.80;;
41755;SDS011;27435;48.480;9.258;2023-06-10T09:36:35;5.45;;;3.45;;
41755;SDS011;27435;48.480;9.258;2023-06-10T09:39:01;6.05;;;3.22;;
41755;SDS011;27435;48.480;9.258;2023-06-10T09:41:34;4.28;;;2.80;;
41755;SDS011;27435;48.480;9.258;2023-06-10T09:44:01;4.32;;;2.63;;
41755;SDS011;27435;48.480;9.258;2023-06-10T09:46:31;7.05;;;2.60;;
41755;SDS011;27435;48.480;9.258;2023-06-10T09:48:59;3.75;;;2.22;;
41755;SDS011;27435;48.480;9.258;2023-06-10T09:51:25;6.50;;;2.50;;
41755;SDS011;27435;48.480;9.258;2023-06-10T09:53:51;4.63;;;2.55;;
41755;SDS011;27435;48.480;9.258;2023-06-10T09:56:17;3.22;;;2.25;;
41755;SDS011;27435;48.480;9.258;2023-06-10T09:58:44;4.70;;;2.63;;
41755;SDS011;27435;48.480;9.258;2023-06-10T10:01:11;4.97;;;2.30;;
41755;SDS011;27435;48.480;9.258;2023-06-10T10:03:50;3.15;;;2.28;;
41755;SDS011;27435;48.480;9.258;2023-06-10T10:06:16;3.42;;;2.40;;
41755;SDS011;27435;48.480;9.258;2023-06-10T10:08:43;5.68;;;2.33;;
41755;SDS011;27435;48.480;9.258;2023-06-10T10:11:10;5.18;;;2.78;;
41755;SDS011;27435;48.480;9.258;2023-06-10T10:13:36;4.05;;;2.80;;
41755;SDS011;27435;48.480;9.258;2023-06-10T10:16:14;3.63;;;2.80;;
41755;SDS011;27435;48.480;9.258;2023-06-10T10:21:21;6.18;;;2.78;;
41755;SDS011;27435;48.480;9.258;2023-06-10T10:23:53;5.30;;;2.85;;
41755;SDS011;27435;48.480;9.258;2023-06-10T10:26:37;4.68;;;2.47;;
41755;SDS011;27435;48.480;9.258;2023-06-10T10:29:10;7.20;;;2.92;;
41755;SDS011;27435;48.480;9.258;2023-06-10T10:31:42;4.45;;;2.88;;
41755;SDS011;27435;48.480;9.258;2023-06-10T10:34:19;5.28;;;2.97;;
41755;SDS011;27435;48.480;9.258;2023-06-10T10:37:05;3.70;;;2.90;;
41755;SDS011;27435;48.480;9.258;2023-06-10T10:39:32;5.13;;;2.45;;
41755;SDS011;27435;48.480;9.258;2023-06-10T10:41:59;4.75;;;3.10;;
41755;SDS011;27435;48.480;9.258;2023-06-10T10:44:26;4.93;;;3.00;;
41755;SDS011;27435;48.480;9.258;2023-06-10T10:46:52;4.90;;;3.40;;
41755;SDS011;27435;48.480;9.258;2023-06-10T10:49:19;4.00;;;2.75;;
41755;SDS011;27435;48.480;9.258;2023-06-10T10:51:54;4.80;;;2.72;;
41755;SDS011;27435;48.480;9.258;2023-06-10T10:54:33;4.40;;;2.78;;
41755;SDS011;27435;48.480;9.258;2023-06-10T10:57:12;4.22;;;2.70;;
41755;SDS011;27435;48.480;9.258;2023-06-10T11:05:10;7.50;;;3.00;;
41755;SDS011;27435;48.480;9.258;2023-06-10T11:07:38;5.65;;;3.00;;
41755;SDS011;27435;48.480;9.258;2023-06-10T11:10:10;4.30;;;3.10;;
41755;SDS011;27435;48.480;9.258;2023-06-10T11:12:40;7.22;;;2.70;;
41755;SDS011;27435;48.480;9.258;2023-06-10T11:15:07;4.75;;;2.95;;
41755;SDS011;27435;48.480;9.258;2023-06-10T11:17:33;4.57;;;2.95;;
41755;SDS011;27435;48.480;9.258;2023-06-10T11:19:59;4.55;;;3.28;;
41755;SDS011;27435;48.480;9.258;2023-06-10T11:22:25;8.30;;;3.30;;
41755;SDS011;27435;48.480;9.258;2023-06-10T11:24:50;3.85;;;2.67;;
41755;SDS011;27435;48.480;9.258;2023-06-10T11:32:32;4.85;;;3.50;;
41755;SDS011;27435;48.480;9.258;2023-06-10T11:34:59;5.43;;;3.00;;
41755;SDS011;27435;48.480;9.258;2023-06-10T11:37:27;4.60;;;3.63;;
41755;SDS011;27435;48.480;9.258;2023-06-10T11:39:56;7.18;;;3.47;;
41755;SDS011;27435;48.480;9.258;2023-06-10T11:42:22;4.57;;;3.03;;
41755;SDS011;27435;48.480;9.258;2023-06-10T11:44:53;4.07;;;3.10;;
41755;SDS011;27435;48.480;9.258;2023-06-10T11:47:19;5.25;;;3.20;;
41755;SDS011;27435;48.480;9.258;2023-06-10T11:49:55;5.45;;;2.95;;
41755;SDS011;27435;48.480;9.258;2023-06-10T11:54:58;4.00;;;2.85;;
41755;SDS011;27435;48.480;9.258;2023-06-10T11:57:24;4.68;;;3.00;;
41755;SDS011;27435;48.480;9.258;2023-06-10T11:59:50;4.07;;;3.15;;
41755;SDS011;27435;48.480;9.258;2023-06-10T12:02:16;5.57;;;3.00;;
41755;SDS011;27435;48.480;9.258;2023-06-10T12:04:41;4.90;;;3.13;;
41755;SDS011;27435;48.480;9.258;2023-06-10T12:07:07;4.25;;;3.17;;
41755;SDS011;27435;48.480;9.258;2023-06-10T12:09:33;6.90;;;3.10;;
41755;SDS011;27435;48.480;9.258;2023-06-10T12:12:02;5.10;;;3.40;;
41755;SDS011;27435;48.480;9.258;2023-06-10T12:20:02;6.40;;;2.92;;
41755;SDS011;27435;48.480;9.258;2023-06-10T12:22:39;4.22;;;3.13;;
41755;SDS011;27435;48.480;9.258;2023-06-10T12:25:06;4.82;;;3.17;;
41755;SDS011;27435;48.480;9.258;2023-06-10T12:27:33;4.82;;;3.25;;
41755;SDS011;27435;48.480;9.258;2023-06-10T12:30:00;3.90;;;3.00;;
41755;SDS011;27435;48.480;9.258;2023-06-10T12:32:42;4.65;;;3.33;;
41755;SDS011;27435;48.480;9.258;2023-06-10T12:35:10;4.60;;;3.33;;
41755;SDS011;27435;48.480;9.258;2023-06-10T12:37:37;5.55;;;3.33;;
41755;SDS011;27435;48.480;9.258;2023-06-10T12:40:04;4.35;;;3.33;;
41755;SDS011;27435;48.480;9.258;2023-06-10T12:42:31;4.05;;;2.65;;
41755;SDS011;27435;48.480;9.258;2023-06-10T12:44:59;4.25;;;2.50;;
41755;SDS011;27435;48.480;9.258;2023-06-10T12:47:34;4.50;;;3.13;;
41755;SDS011;27435;48.480;9.258;2023-06-10T12:50:01;4.15;;;3.10;;
41755;SDS011;27435;48.480;9.258;2023-06-10T12:52:28;3.75;;;2.78;;
41755;SDS011;27435;48.480;9.258;2023-06-10T12:54:54;4.93;;;3.05;;
41755;SDS011;27435;48.480;9.258;2023-06-10T12:57:20;5.78;;;3.40;;
41755;SDS011;27435;48.480;9.258;2023-06-10T12:59:49;3.72;;;2.50;;
41755;SDS011;27435;48.480;9.258;2023-06-10T13:02:18;3.92;;;2.47;;
41755;SDS011;27435;48.480;9.258;2023-06-10T13:04:45;5.53;;;2.75;;
41755;SDS011;27435;48.480;9.258;2023-06-10T13:07:14;6.15;;;2.40;;
41755;SDS011;27435;48.480;9.258;2023-06-10T13:09:40;4.00;;;2.67;;
41755;SDS011;27435;48.480;9.258;2023-06-10T13:12:06;2.90;;;2.38;;
41755;SDS011;27435;48.480;9.258;2023-06-10T13:14:33;3.50;;;2.50;;
41755;SDS011;27435;48.480;9.258;2023-06-10T13:16:58;3.92;;;2.80;;
41755;SDS011;27435;48.480;9.258;2023-06-10T13:19:24;4.95;;;2.33;;
41755;SDS011;27435;48.480;9.258;2023-06-10T13:21:50;5.18;;;2.50;;
41755;SDS011;27435;48.480;9.258;2023-06-10T13:24:16;3.83;;;2.58;;
41755;SDS011;27435;48.480;9.258;2023-06-10T13:26:42;3.45;;;2.53;;
41755;SDS011;27435;48.480;9.258;2023-06-10T13:29:08;3.90;;;2.75;;
41755;SDS011;27435;48.480;9.258;2023-06-10T13:31:38;4.28;;;2.95;;
41755;SDS011;27435;48.480;9.258;2023-06-10T13:34:05;4.45;;;3.00;;
41755;SDS011;27435;48.480;9.258;2023-06-10T13:36:31;3.78;;;2.47;;
41755;SDS011;27435;48.480;9.258;2023-06-10T13:38:57;3.53;;;2.67;;
41755;SDS011;27435;48.480;9.258;2023-06-10T13:41:22;5.10;;;2.53;;
41755;SDS011;27435;48.480;9.258;2023-06-10T13:43:48;3.25;;;2.25;;
41755;SDS011;27435;48.480;9.258;2023-06-10T13:46:14;4.10;;;2.35;;
41755;SDS011;27435;48.480;9.258;2023-06-10T13:48:39;4.60;;;2.58;;
41755;SDS011;27435;48.480;9.258;2023-06-10T13:51:05;5.25;;;2.67;;
41755;SDS011;27435;48.480;9.258;2023-06-10T13:53:31;4.97;;;2.92;;
41755;SDS011;27435;48.480;9.258;2023-06-10T13:55:57;3.78;;;2.58;;
41755;SDS011;27435;48.480;9.258;2023-06-10T13:58:23;4.10;;;2.85;;
41755;SDS011;27435;48.480;9.258;2023-06-10T14:00:48;6.22;;;3.60;;
41755;SDS011;27435;48.480;9.258;2023-06-10T14:03:14;3.63;;;2.33;;
41755;SDS011;27435;48.480;9.258;2023-06-10T14:05:40;4.57;;;2.55;;
41755;SDS011;27435;48.480;9.258;2023-06-10T14:08:06;5.32;;;2.15;;
41755;SDS011;27435;48.480;9.258;2023-06-10T14:10:32;3.75;;;2.17;;
41755;SDS011;27435;48.480;9.258;2023-06-10T14:12:58;3.55;;;2.60;;
41755;SDS011;27435;48.480;9.258;2023-06-10T14:15:23;3.20;;;2.30;;
41755;SDS011;27435;48.480;9.258;2023-06-10T14:17:49;3.80;;;2.40;;
41755;SDS011;27435;48.480;9.258;2023-06-10T14:20:15;8.48;;;2.95;;
41755;SDS011;27435;48.480;9.258;2023-06-10T14:22:40;4.47;;;2.65;;
41755;SDS011;27435;48.480;9.258;2023-06-10T14:25:06;3.88;;;3.05;;
41755;SDS011;27435;48.480;9.258;2023-06-10T14:27:32;4.60;;;2.30;;
41755;SDS011;27435;48.480;9.258;2023-06-10T14:29:58;6.80;;;2.72;;
41755;SDS011;27435;48.480;9.258;2023-06-10T14:32:23;3.60;;;2.67;;
41755;SDS011;27435;48.480;9.258;2023-06-10T14:34:49;4.85;;;2.50;;
41755;SDS011;27435;48.480;9.258;2023-06-10T14:37:15;4.60;;;2.10;;
41755;SDS011;27435;48.480;9.258;2023-06-10T14:39:40;4.97;;;2.45;;
41755;SDS011;27435;48.480;9.258;2023-06-10T14:42:06;3.45;;;2.58;;
41755;SDS011;27435;48.480;9.258;2023-06-10T14:44:32;3.33;;;2.50;;
41755;SDS011;27435;48.480;9.258;2023-06-10T14:46:57;3.53;;;2.65;;
41755;SDS011;27435;48.480;9.258;2023-06-10T14:49:23;3.38;;;2.53;;
41755;SDS011;27435;48.480;9.258;2023-06-10T14:51:49;4.57;;;2.90;;
41755;SDS011;27435;48.480;9.258;2023-06-10T14:54:15;3.70;;;2.60;;
41755;SDS011;27435;48.480;9.258;2023-06-10T14:56:41;3.97;;;2.63;;
41755;SDS011;27435;48.480;9.258;2023-06-10T14:59:06;4.20;;;2.80;;
41755;SDS011;27435;48.480;9.258;2023-06-10T15:01:32;4.18;;;2.63;;
41755;SDS011;27435;48.480;9.258;2023-06-10T15:03:57;5.50;;;2.92;;
41755;SDS011;27435;48.480;9.258;2023-06-10T15:06:23;3.45;;;2.75;;
41755;SDS011;27435;48.480;9.258;2023-06-10T15:08:49;3.75;;;2.40;;